BTI6UV EETN-EKCH
Flight info
| Callsign | BTI6UV |
|---|---|
| Flight time | N/A |
| Altitude | 38000 |
| Route | LONSA DCT SUVIX DCT PIMEX DCT RASEL DCT KAL DCT LAGIS DCT KOTAM L990 EKRAL P605 TIDVU |
| Aircraft | A319/M-SDE3FGHIRWY/LB1 |
Departure
| Time | 2026-05-03 20:17 |
|---|---|
| Airport | Lennart Meri Tallinn Airport (EETN) |
Arrival
| Time | N/A |
|---|---|
| Airport | Copenhagen Kastrup Airport (EKCH) |
| Time | Latitude | Longitude | Altitude | Speed | Heading |
|---|---|---|---|---|---|
| 2026-05-03 20:15 | 59.41496 | 24.84736 | 162 ft | 23 kts | 90° |
| 2026-05-03 20:15 | 59.41495 | 24.84960 | 162 ft | 9 kts | 92° |
| 2026-05-03 20:15 | 59.41452 | 24.85013 | 162 ft | 9 kts | 180° |
| 2026-05-03 20:15 | 59.41390 | 24.85011 | 162 ft | 9 kts | 180° |
| 2026-05-03 20:16 | 59.41324 | 24.84978 | 162 ft | 10 kts | 244° |
| 2026-05-03 20:16 | 59.41321 | 24.84841 | 162 ft | 11 kts | 270° |
| 2026-05-03 20:16 | 59.41322 | 24.84460 | 160 ft | 64 kts | 270° |
| 2026-05-03 20:16 | 59.41325 | 24.83083 | 161 ft | 135 kts | 270° |
| 2026-05-03 20:17 | 59.41324 | 24.80937 | 458 ft | 163 kts | 269° |
| 2026-05-03 20:17 | 59.41328 | 24.78737 | 1219 ft | 161 kts | 270° |
| 2026-05-03 20:17 | 59.41169 | 24.76579 | 1939 ft | 164 kts | 243° |
| 2026-05-03 20:17 | 59.40478 | 24.74630 | 2384 ft | 185 kts | 235° |
| 2026-05-03 20:18 | 59.39683 | 24.72438 | 2778 ft | 207 kts | 236° |
| 2026-05-03 20:18 | 59.38813 | 24.69999 | 3220 ft | 230 kts | 236° |
| 2026-05-03 20:18 | 59.37858 | 24.67289 | 3865 ft | 248 kts | 236° |
| 2026-05-03 20:18 | 59.36868 | 24.64465 | 4849 ft | 253 kts | 236° |
| 2026-05-03 20:19 | 59.35866 | 24.61603 | 5890 ft | 255 kts | 236° |
| 2026-05-03 20:19 | 59.35201 | 24.59700 | 6580 ft | 256 kts | 237° |
| 2026-05-03 20:19 | 59.34190 | 24.56801 | 7572 ft | 258 kts | 237° |
| 2026-05-03 20:19 | 59.33173 | 24.53889 | 8590 ft | 260 kts | 237° |
| 2026-05-03 20:20 | 59.32151 | 24.50962 | 9607 ft | 261 kts | 238° |
| 2026-05-03 20:20 | 59.30758 | 24.46978 | 10426 ft | 281 kts | 238° |
| 2026-05-03 20:20 | 59.29621 | 24.43720 | 10944 ft | 296 kts | 238° |
| 2026-05-03 20:20 | 59.28444 | 24.40361 | 11727 ft | 301 kts | 238° |
| 2026-05-03 20:21 | 59.27637 | 24.38068 | 12292 ft | 304 kts | 238° |
| 2026-05-03 20:21 | 59.26431 | 24.34643 | 13131 ft | 308 kts | 238° |
| 2026-05-03 20:21 | 59.25209 | 24.31178 | 13922 ft | 312 kts | 238° |
| 2026-05-03 20:21 | 59.23975 | 24.27678 | 14670 ft | 314 kts | 238° |
| 2026-05-03 20:22 | 59.22743 | 24.24193 | 15428 ft | 316 kts | 238° |
| 2026-05-03 20:22 | 59.21490 | 24.20654 | 16185 ft | 318 kts | 239° |
| 2026-05-03 20:22 | 59.20228 | 24.17096 | 16942 ft | 320 kts | 239° |
| 2026-05-03 20:22 | 59.18954 | 24.13507 | 17695 ft | 322 kts | 239° |
| 2026-05-03 20:23 | 59.17673 | 24.09898 | 18401 ft | 325 kts | 239° |
| 2026-05-03 20:23 | 59.16385 | 24.06271 | 19044 ft | 327 kts | 239° |
| 2026-05-03 20:23 | 59.15087 | 24.02622 | 19688 ft | 329 kts | 239° |
| 2026-05-03 20:23 | 59.13776 | 23.98948 | 20332 ft | 331 kts | 239° |
| 2026-05-03 20:24 | 59.12455 | 23.95251 | 20970 ft | 334 kts | 239° |
| 2026-05-03 20:24 | 59.11122 | 23.91529 | 21544 ft | 337 kts | 239° |
| 2026-05-03 20:24 | 59.09775 | 23.87768 | 22095 ft | 341 kts | 239° |
| 2026-05-03 20:24 | 59.08410 | 23.83964 | 22702 ft | 344 kts | 239° |
| 2026-05-03 20:25 | 59.07083 | 23.80069 | 23307 ft | 346 kts | 242° |
| 2026-05-03 20:25 | 59.05828 | 23.76068 | 23826 ft | 348 kts | 243° |
| 2026-05-03 20:25 | 59.04601 | 23.71991 | 24326 ft | 350 kts | 244° |
| 2026-05-03 20:25 | 59.03374 | 23.67881 | 24817 ft | 353 kts | 244° |
| 2026-05-03 20:26 | 59.02132 | 23.63758 | 25304 ft | 355 kts | 244° |
| 2026-05-03 20:26 | 59.00869 | 23.59621 | 25782 ft | 357 kts | 244° |
| 2026-05-03 20:26 | 58.99588 | 23.55478 | 26167 ft | 359 kts | 243° |
| 2026-05-03 20:26 | 58.98292 | 23.51318 | 26664 ft | 361 kts | 243° |
| 2026-05-03 20:27 | 58.96984 | 23.47144 | 27182 ft | 362 kts | 243° |
| 2026-05-03 20:27 | 58.95672 | 23.42966 | 27655 ft | 364 kts | 243° |
| 2026-05-03 20:27 | 58.94354 | 23.38763 | 28110 ft | 366 kts | 244° |
| 2026-05-03 20:27 | 58.93029 | 23.34536 | 28556 ft | 369 kts | 244° |
| 2026-05-03 20:28 | 58.91691 | 23.30267 | 28903 ft | 373 kts | 243° |
| 2026-05-03 20:28 | 58.90356 | 23.26006 | 29274 ft | 376 kts | 243° |
| 2026-05-03 20:28 | 58.88992 | 23.21664 | 29683 ft | 379 kts | 243° |
| 2026-05-03 20:28 | 58.87615 | 23.17296 | 30071 ft | 382 kts | 243° |
| 2026-05-03 20:29 | 58.86223 | 23.12902 | 30425 ft | 384 kts | 243° |